Time;durP1;ratioP1;P1;durP2;ratioP2;P2;SDS_P1;SDS_P2;PMS_P1;PMS_P2;Temp;Humidity;BMP_temperature;BMP_pressure;BME280_temperature;BME280_humidity;BME280_pressure;Samples;Min_cycle;Max_cycle;Signal;HPM_P1;HPM_P2
2022/08/22 00:00:30;;;;;;;;;;;23.00;99.90;;;;;;5062632;28;20423;-74
2022/08/22 00:02:59;;;;;;;;;;;22.90;99.90;;;;;;5077532;28;20395;-74
2022/08/22 00:05:24;;;;;;;;;;;22.80;99.90;;;;;;5074071;28;20360;-75
2022/08/22 00:07:59;;;;;;;;;;;22.80;99.90;;;;;;5078280;28;19916;-74
2022/08/22 00:10:37;;;;;;;;;;;22.70;99.90;;;;;;5075165;28;19912;-74
2022/08/22 00:13:06;;;;;;;;;;;22.60;99.90;;;;;;5073388;28;19920;-74
2022/08/22 00:15:35;;;;;;;;;;;22.50;99.90;;;;;;5075889;28;20007;-75
2022/08/22 00:18:26;;;;;;;;;;;22.50;99.90;;;;;;5076169;28;20286;-75
2022/08/22 00:20:55;;;;;;;;;;;22.50;99.90;;;;;;5074621;28;19935;-75
2022/08/22 00:23:33;;;;;;;;;;;22.50;99.90;;;;;;5074576;28;19932;-74
2022/08/22 00:26:13;;;;;;;;;;;22.40;99.90;;;;;;5077140;28;20474;-74
2022/08/22 00:28:39;;;;;;;;;;;22.50;99.90;;;;;;5080609;28;19912;-75
2022/08/22 00:31:04;;;;;;;;;;;22.40;99.90;;;;;;5074837;28;19926;-74
2022/08/22 00:33:48;;;;;;;;;;;22.50;99.90;;;;;;5074684;28;19913;-74
2022/08/22 00:36:26;;;;;;;;;;;22.40;99.90;;;;;;5094907;28;19963;-75
2022/08/22 00:38:59;;;;;;;;;;;22.30;99.90;;;;;;5080316;28;19958;-75
2022/08/22 00:41:27;;;;;;;;;;;22.30;99.90;;;;;;5073869;28;19924;-74
2022/08/22 00:44:01;;;;;;;;;;;22.30;99.90;;;;;;5076003;28;19922;-74
2022/08/22 00:46:41;;;;;;;;;;;22.20;99.90;;;;;;5075147;28;19920;-75
2022/08/22 00:49:06;;;;;;;;;;;22.20;99.90;;;;;;5076023;28;19920;-74
2022/08/22 00:51:50;;;;;;;;;;;22.20;99.90;;;;;;5079081;28;20026;-73
2022/08/22 00:54:22;;;;;;;;;;;22.20;99.90;;;;;;5074381;28;19938;-74
2022/08/22 00:56:57;;;;;;;;;;;22.20;99.90;;;;;;5075554;28;19998;-74
2022/08/22 00:59:23;;;;;;;;;;;22.30;99.90;;;;;;5057453;28;20002;-73
2022/08/22 01:01:50;;;;;;;;;;;22.40;99.90;;;;;;5072976;28;19916;-75
2022/08/22 01:04:22;;;;;;;;;;;22.40;99.90;;;;;;5075493;28;19923;-75
2022/08/22 01:07:06;;;;;;;;;;;22.30;99.90;;;;;;5074120;28;19912;-73
2022/08/22 01:09:35;;;;;;;;;;;22.20;99.90;;;;;;5077346;28;19969;-75
2022/08/22 01:12:00;;;;;;;;;;;22.10;99.90;;;;;;5078115;28;19938;-75
2022/08/22 01:14:34;;;;;;;;;;;22.00;99.90;;;;;;5079335;28;20297;-75
2022/08/22 01:17:19;;;;;;;;;;;22.00;99.90;;;;;;5080191;28;20008;-76
2022/08/22 01:19:47;;;;;;;;;;;22.00;99.90;;;;;;5097388;28;19928;-74
2022/08/22 01:22:31;;;;;;;;;;;21.90;99.90;;;;;;5082900;28;19959;-74
2022/08/22 01:25:18;;;;;;;;;;;22.00;99.90;;;;;;5077655;28;19978;-74
2022/08/22 01:27:53;;;;;;;;;;;22.00;99.90;;;;;;5077940;28;19920;-75
2022/08/22 01:30:37;;;;;;;;;;;22.00;99.90;;;;;;5080959;28;19916;-74
2022/08/22 01:33:21;;;;;;;;;;;21.90;99.90;;;;;;5080585;28;19916;-75
2022/08/22 01:35:59;;;;;;;;;;;21.80;99.90;;;;;;5076721;28;20013;-76
2022/08/22 01:38:33;;;;;;;;;;;21.70;99.90;;;;;;5080526;28;19920;-75
2022/08/22 01:41:07;;;;;;;;;;;21.70;99.90;;;;;;5078830;28;19920;-75
2022/08/22 01:43:54;;;;;;;;;;;21.70;99.90;;;;;;5075772;28;19917;-75
2022/08/22 01:46:31;;;;;;;;;;;21.80;99.90;;;;;;5078465;28;20006;-74
2022/08/22 01:48:56;;;;;;;;;;;21.60;99.90;;;;;;5078392;28;19966;-75
2022/08/22 01:51:25;;;;;;;;;;;21.60;99.90;;;;;;5080269;28;19956;-75
2022/08/22 01:54:12;;;;;;;;;;;21.50;99.90;;;;;;5076573;28;19912;-75
2022/08/22 01:56:43;;;;;;;;;;;21.50;99.90;;;;;;5091817;28;19918;-74
2022/08/22 01:59:29;;;;;;;;;;;21.50;99.90;;;;;;5092431;28;19916;-75
2022/08/22 02:01:54;;;;;;;;;;;21.50;99.90;;;;;;5092974;28;19920;-74
2022/08/22 02:04:38;;;;;;;;;;;21.60;99.90;;;;;;5081968;28;19936;-74
2022/08/22 02:07:04;;;;;;;;;;;21.90;99.90;;;;;;5080938;28;20443;-75
2022/08/22 02:09:48;;;;;;;;;;;22.00;99.90;;;;;;5080420;28;19995;-75
2022/08/22 02:12:32;;;;;;;;;;;22.10;99.90;;;;;;5081548;28;20393;-75
2022/08/22 02:14:57;;;;;;;;;;;22.00;99.90;;;;;;5080606;28;19920;-74
2022/08/22 02:17:46;;;;;;;;;;;22.00;99.90;;;;;;5079742;28;19920;-75
2022/08/22 02:20:31;;;;;;;;;;;21.90;99.90;;;;;;5080350;28;20334;-76
2022/08/22 02:23:03;;;;;;;;;;;21.70;99.90;;;;;;5082256;28;20572;-74
2022/08/22 02:25:48;;;;;;;;;;;21.70;99.90;;;;;;5078423;28;19994;-74
2022/08/22 02:28:27;;;;;;;;;;;21.90;99.90;;;;;;5076429;28;20014;-73
2022/08/22 02:31:01;;;;;;;;;;;22.00;99.90;;;;;;5079544;28;19924;-75
2022/08/22 02:33:45;;;;;;;;;;;22.00;99.90;;;;;;5080342;28;19916;-73
2022/08/22 02:36:32;;;;;;;;;;;21.90;99.90;;;;;;5077717;28;19954;-74
2022/08/22 02:39:12;;;;;;;;;;;21.90;99.90;;;;;;5076218;28;19967;-76
2022/08/22 02:41:52;;;;;;;;;;;21.90;99.90;;;;;;5065746;28;19918;-75
2022/08/22 02:44:24;;;;;;;;;;;21.90;99.90;;;;;;5082490;28;20008;-74
2022/08/22 02:46:59;;;;;;;;;;;22.00;99.90;;;;;;5075473;28;20285;-73
2022/08/22 02:49:29;;;;;;;;;;;21.90;99.90;;;;;;5075278;28;19917;-75
2022/08/22 02:51:58;;;;;;;;;;;21.70;99.90;;;;;;5077562;28;19913;-73
2022/08/22 02:54:34;;;;;;;;;;;21.80;99.90;;;;;;5077118;28;19921;-74
2022/08/22 02:57:19;;;;;;;;;;;21.80;99.90;;;;;;5076021;28;20013;-74
2022/08/22 03:00:00;;;;;;;;;;;21.80;99.90;;;;;;5071918;28;20332;-75
2022/08/22 03:02:37;;;;;;;;;;;21.60;99.90;;;;;;5074915;28;19919;-75
2022/08/22 03:05:26;;;;;;;;;;;21.60;99.90;;;;;;5079874;28;20253;-74
2022/08/22 03:08:03;;;;;;;;;;;21.60;99.90;;;;;;5055462;28;19958;-76
2022/08/22 03:10:35;;;;;;;;;;;21.50;99.90;;;;;;5073926;28;20425;-75
2022/08/22 03:13:09;;;;;;;;;;;21.40;99.90;;;;;;5073663;28;21698;-74
2022/08/22 03:15:35;;;;;;;;;;;21.30;99.90;;;;;;5075261;28;20374;-74
2022/08/22 03:18:04;;;;;;;;;;;21.20;99.90;;;;;;5078190;28;19964;-74
2022/08/22 03:20:38;;;;;;;;;;;21.00;99.90;;;;;;5078602;28;19912;-73
2022/08/22 03:23:07;;;;;;;;;;;21.00;99.90;;;;;;5078134;28;19924;-74
2022/08/22 03:25:39;;;;;;;;;;;21.00;99.90;;;;;;5062248;28;19916;-75
2022/08/22 03:28:18;;;;;;;;;;;21.10;99.90;;;;;;5076023;28;20280;-73
2022/08/22 03:30:57;;;;;;;;;;;21.00;99.90;;;;;;5073109;28;19921;-73
2022/08/22 03:33:24;;;;;;;;;;;21.20;99.90;;;;;;5072697;28;19913;-74
2022/08/22 03:36:00;;;;;;;;;;;21.40;99.90;;;;;;5074412;28;20026;-74
2022/08/22 03:38:31;;;;;;;;;;;21.40;99.90;;;;;;5076847;28;19927;-73
2022/08/22 03:41:16;;;;;;;;;;;21.30;99.90;;;;;;5076161;28;20047;-75
2022/08/22 03:44:00;;;;;;;;;;;21.20;99.90;;;;;;5077438;28;20368;-75
2022/08/22 03:46:26;;;;;;;;;;;21.20;99.90;;;;;;5074676;28;19916;-74
2022/08/22 03:49:14;;;;;;;;;;;21.10;99.90;;;;;;5077031;28;19982;-75
2022/08/22 03:52:06;;;;;;;;;;;21.00;99.90;;;;;;5074685;28;20050;-75
2022/08/22 03:54:58;;;;;;;;;;;20.90;99.90;;;;;;5071058;28;19994;-74
2022/08/22 03:57:43;;;;;;;;;;;20.80;99.90;;;;;;5082677;28;20500;-73
2022/08/22 04:00:24;;;;;;;;;;;20.70;99.90;;;;;;5093885;28;19962;-76
2022/08/22 04:02:58;;;;;;;;;;;20.60;99.90;;;;;;5078673;28;19983;-74
2022/08/22 04:05:33;;;;;;;;;;;20.60;99.90;;;;;;5089649;28;19926;-75
2022/08/22 04:08:09;;;;;;;;;;;20.60;99.90;;;;;;5091456;28;19912;-75
2022/08/22 04:10:40;;;;;;;;;;;20.70;99.90;;;;;;5073544;28;19943;-74
2022/08/22 04:13:24;;;;;;;;;;;20.90;99.90;;;;;;5076933;28;19965;-75
2022/08/22 04:16:07;;;;;;;;;;;21.00;99.90;;;;;;5085240;28;19912;-75
2022/08/22 04:18:51;;;;;;;;;;;21.00;99.90;;;;;;5075466;28;19945;-75
2022/08/22 04:21:31;;;;;;;;;;;21.00;99.90;;;;;;5071647;28;19916;-76
2022/08/22 04:24:09;;;;;;;;;;;20.90;99.90;;;;;;5072724;28;19916;-74
2022/08/22 04:26:35;;;;;;;;;;;20.90;99.90;;;;;;5059320;28;19921;-74
2022/08/22 04:29:04;;;;;;;;;;;20.90;99.90;;;;;;5075550;28;19916;-74
2022/08/22 04:31:40;;;;;;;;;;;21.00;99.90;;;;;;5055996;28;20380;-75
2022/08/22 04:34:30;;;;;;;;;;;21.10;99.90;;;;;;5077204;28;20316;-75
2022/08/22 04:37:00;;;;;;;;;;;21.20;99.90;;;;;;5062595;28;19916;-75
2022/08/22 04:39:31;;;;;;;;;;;21.20;99.90;;;;;;5076976;28;19948;-74
2022/08/22 04:42:00;;;;;;;;;;;21.20;99.90;;;;;;5076361;28;19920;-74
2022/08/22 04:44:35;;;;;;;;;;;21.20;99.90;;;;;;5083770;28;19915;-74
2022/08/22 04:47:05;;;;;;;;;;;21.20;99.90;;;;;;5079064;28;20084;-73
2022/08/22 04:49:30;;;;;;;;;;;21.10;99.90;;;;;;5094835;28;20942;-73
2022/08/22 04:52:05;;;;;;;;;;;21.10;99.90;;;;;;5077819;28;19916;-75
2022/08/22 04:54:34;;;;;;;;;;;21.10;99.90;;;;;;5083906;28;20246;-75
2022/08/22 04:57:06;;;;;;;;;;;21.10;99.90;;;;;;5083618;28;19923;-74
2022/08/22 04:59:32;;;;;;;;;;;21.10;99.90;;;;;;5080576;28;19918;-74
2022/08/22 05:02:04;;;;;;;;;;;21.10;99.90;;;;;;5079404;28;19920;-74
2022/08/22 05:04:39;;;;;;;;;;;21.10;99.90;;;;;;5080996;28;19963;-75
2022/08/22 05:07:11;;;;;;;;;;;21.10;99.90;;;;;;5080553;28;19920;-74
2022/08/22 05:09:39;;;;;;;;;;;21.10;99.90;;;;;;5080547;28;19920;-75
2022/08/22 05:12:08;;;;;;;;;;;21.20;99.90;;;;;;5082202;28;19944;-75
2022/08/22 05:14:39;;;;;;;;;;;21.30;99.90;;;;;;5077974;28;19920;-74
2022/08/22 05:17:06;;;;;;;;;;;21.40;99.90;;;;;;5081221;28;19928;-76
2022/08/22 05:19:34;;;;;;;;;;;21.40;99.90;;;;;;5080685;28;20002;-75
2022/08/22 05:22:00;;;;;;;;;;;21.30;99.90;;;;;;5079296;28;19919;-73
2022/08/22 05:24:35;;;;;;;;;;;21.10;99.90;;;;;;5079673;28;19930;-75
2022/08/22 05:27:04;;;;;;;;;;;21.10;99.90;;;;;;5081772;28;20378;-75
2022/08/22 05:29:30;;;;;;;;;;;21.20;99.90;;;;;;5081535;28;20237;-76
2022/08/22 05:31:56;;;;;;;;;;;21.30;99.90;;;;;;5081032;28;19916;-74
2022/08/22 05:34:23;;;;;;;;;;;21.20;99.90;;;;;;5078006;28;19999;-74
2022/08/22 05:37:00;;;;;;;;;;;21.30;99.90;;;;;;5078250;28;20302;-75
2022/08/22 05:39:26;;;;;;;;;;;21.40;99.90;;;;;;5079695;28;19967;-75
2022/08/22 05:41:53;;;;;;;;;;;21.30;99.90;;;;;;5096867;27;19912;-74
2022/08/22 05:44:20;;;;;;;;;;;21.30;99.90;;;;;;5078680;28;20404;-73
2022/08/22 05:46:55;;;;;;;;;;;21.30;99.90;;;;;;5074279;28;19952;-74
2022/08/22 05:49:30;;;;;;;;;;;21.40;99.90;;;;;;5079204;28;19920;-74
2022/08/22 05:51:58;;;;;;;;;;;21.60;99.90;;;;;;5076574;28;19913;-75
2022/08/22 05:54:27;;;;;;;;;;;21.70;99.90;;;;;;5081943;28;19969;-75
2022/08/22 05:56:56;;;;;;;;;;;21.90;99.90;;;;;;5083147;28;19912;-76
2022/08/22 05:59:27;;;;;;;;;;;21.90;99.90;;;;;;5070542;28;19927;-74
2022/08/22 06:02:04;;;;;;;;;;;21.80;99.90;;;;;;5091044;28;19913;-75
2022/08/22 06:04:35;;;;;;;;;;;21.80;99.90;;;;;;5084143;28;19916;-75
2022/08/22 06:07:01;;;;;;;;;;;21.80;99.90;;;;;;5100638;28;19955;-76
2022/08/22 06:09:38;;;;;;;;;;;21.80;99.90;;;;;;5095161;28;19935;-74
2022/08/22 06:12:30;;;;;;;;;;;21.90;99.90;;;;;;5094528;28;20301;-73
2022/08/22 06:15:08;;;;;;;;;;;22.10;99.90;;;;;;5085923;28;19919;-74
2022/08/22 06:17:36;;;;;;;;;;;22.40;99.90;;;;;;5096128;28;19956;-75
2022/08/22 06:20:04;;;;;;;;;;;22.30;99.90;;;;;;5099624;28;19958;-75
2022/08/22 06:22:33;;;;;;;;;;;22.30;99.90;;;;;;5069774;28;19924;-76
2022/08/22 06:25:17;;;;;;;;;;;22.30;99.90;;;;;;5068994;28;20018;-75
2022/08/22 06:27:45;;;;;;;;;;;22.40;99.90;;;;;;5079693;28;20373;-75
2022/08/22 06:30:12;;;;;;;;;;;22.30;99.90;;;;;;5091560;28;20285;-73
2022/08/22 06:32:43;;;;;;;;;;;22.40;99.90;;;;;;5093161;28;19915;-74
2022/08/22 06:35:14;;;;;;;;;;;22.50;99.90;;;;;;5097245;28;20195;-76
2022/08/22 06:37:43;;;;;;;;;;;22.80;99.90;;;;;;5095385;28;19934;-75
2022/08/22 06:40:11;;;;;;;;;;;23.00;99.90;;;;;;5091136;28;19912;-76
2022/08/22 06:42:39;;;;;;;;;;;23.10;99.90;;;;;;5103774;28;19908;-76
2022/08/22 06:45:15;;;;;;;;;;;23.20;99.90;;;;;;5098251;28;19954;-74
2022/08/22 06:47:49;;;;;;;;;;;23.30;99.90;;;;;;5112204;28;19943;-75
2022/08/22 06:50:23;;;;;;;;;;;23.40;99.90;;;;;;5105337;28;19918;-75
2022/08/22 06:52:56;;;;;;;;;;;23.50;99.90;;;;;;5100973;28;19919;-75
2022/08/22 06:55:22;;;;;;;;;;;23.60;99.90;;;;;;5092762;28;19935;-70
2022/08/22 06:57:53;;;;;;;;;;;23.50;99.90;;;;;;5092028;28;19912;-74
2022/08/22 07:00:19;;;;;;;;;;;23.50;99.90;;;;;;5072975;28;19920;-70
2022/08/22 07:02:47;;;;;;;;;;;23.50;99.90;;;;;;5100306;28;19912;-73
2022/08/22 07:05:24;;;;;;;;;;;23.50;99.90;;;;;;5109949;28;19912;-69
2022/08/22 07:07:51;;;;;;;;;;;23.50;99.90;;;;;;5104138;28;20018;-71
2022/08/22 07:10:17;;;;;;;;;;;23.60;99.90;;;;;;5093192;28;19961;-71
2022/08/22 07:12:44;;;;;;;;;;;23.70;99.90;;;;;;5099259;28;19912;-70
2022/08/22 07:15:21;;;;;;;;;;;24.00;99.90;;;;;;5097435;28;20003;-69
2022/08/22 07:17:49;;;;;;;;;;;24.10;99.90;;;;;;5108264;28;20323;-69
2022/08/22 07:20:15;;;;;;;;;;;24.20;99.90;;;;;;5071923;28;19917;-71
2022/08/22 07:22:49;;;;;;;;;;;24.40;99.90;;;;;;5087013;28;19982;-71
2022/08/22 07:25:15;;;;;;;;;;;24.50;99.90;;;;;;5071344;28;19997;-69
2022/08/22 07:27:52;;;;;;;;;;;24.70;99.90;;;;;;5090389;28;19920;-71
2022/08/22 07:30:19;;;;;;;;;;;24.90;99.90;;;;;;5101221;28;20269;-72
2022/08/22 07:32:52;;;;;;;;;;;25.00;99.90;;;;;;5095051;28;19912;-69
2022/08/22 07:35:44;;;;;;;;;;;25.10;99.90;;;;;;5103251;28;20349;-70
2022/08/22 07:38:16;;;;;;;;;;;25.30;99.90;;;;;;5078865;28;19958;-68
2022/08/22 07:40:42;;;;;;;;;;;25.40;99.90;;;;;;5091118;28;19912;-70
2022/08/22 07:43:14;;;;;;;;;;;25.40;99.90;;;;;;5073715;28;20274;-70
2022/08/22 07:45:46;;;;;;;;;;;25.50;99.90;;;;;;5076741;28;19915;-70
2022/08/22 07:48:15;;;;;;;;;;;25.60;99.90;;;;;;5094807;28;20036;-71
2022/08/22 07:51:01;;;;;;;;;;;25.70;99.90;;;;;;5111885;28;19982;-70
2022/08/22 07:53:30;;;;;;;;;;;25.70;99.90;;;;;;5102042;28;19931;-70
2022/08/22 07:55:57;;;;;;;;;;;25.70;99.90;;;;;;5098922;28;19966;-71
2022/08/22 07:58:25;;;;;;;;;;;25.70;99.90;;;;;;5095513;28;19911;-70
2022/08/22 08:00:52;;;;;;;;;;;25.70;99.90;;;;;;5104344;28;19955;-69
2022/08/22 08:03:20;;;;;;;;;;;25.70;99.90;;;;;;5103758;28;19919;-71
2022/08/22 08:05:46;;;;;;;;;;;25.70;99.90;;;;;;5091208;28;20297;-68
2022/08/22 08:08:19;;;;;;;;;;;25.70;99.90;;;;;;5090684;28;19923;-70
2022/08/22 08:10:46;;;;;;;;;;;25.70;99.90;;;;;;5088170;28;19963;-69
2022/08/22 08:13:15;;;;;;;;;;;25.80;99.90;;;;;;5093339;28;19911;-68
2022/08/22 08:15:44;;;;;;;;;;;25.70;99.90;;;;;;5110523;28;20424;-69
2022/08/22 08:18:12;;;;;;;;;;;25.60;99.90;;;;;;5093063;28;19908;-69
2022/08/22 08:20:38;;;;;;;;;;;25.50;99.90;;;;;;5111151;28;19908;-70
2022/08/22 08:23:08;;;;;;;;;;;25.40;99.90;;;;;;5097403;28;19923;-71
2022/08/22 08:25:47;;;;;;;;;;;25.30;99.90;;;;;;5093576;28;20117;-70
2022/08/22 08:31:00;;;;;;;;;;;25.30;99.90;;;;;;5109356;28;19957;-70
2022/08/22 08:33:27;;;;;;;;;;;25.20;99.90;;;;;;5094764;28;19908;-69
2022/08/22 08:36:18;;;;;;;;;;;25.30;99.90;;;;;;5103314;28;19912;-68
2022/08/22 08:38:44;;;;;;;;;;;25.30;99.90;;;;;;5068596;28;19916;-68
2022/08/22 08:41:28;;;;;;;;;;;25.40;99.90;;;;;;5077170;28;19930;-69
2022/08/22 08:44:08;;;;;;;;;;;25.40;99.90;;;;;;5095151;28;19920;-71
2022/08/22 08:46:34;;;;;;;;;;;25.40;99.90;;;;;;5092858;28;19970;-70
2022/08/22 08:49:08;;;;;;;;;;;25.40;99.90;;;;;;5101972;28;19943;-70
2022/08/22 08:51:40;;;;;;;;;;;25.30;99.90;;;;;;5071753;28;19908;-68
2022/08/22 08:54:25;;;;;;;;;;;25.30;99.90;;;;;;5095423;28;20056;-71
2022/08/22 08:57:02;;;;;;;;;;;25.30;99.90;;;;;;5069772;28;19917;-69
2022/08/22 08:59:47;;;;;;;;;;;25.40;99.90;;;;;;5104882;28;19918;-70
2022/08/22 09:02:25;;;;;;;;;;;25.40;99.90;;;;;;5089155;28;19912;-70
2022/08/22 09:04:56;;;;;;;;;;;25.40;99.90;;;;;;5082682;28;19959;-70
2022/08/22 09:07:41;;;;;;;;;;;25.50;99.90;;;;;;5092442;28;20255;-71
2022/08/22 09:10:25;;;;;;;;;;;25.60;99.90;;;;;;5088665;28;19955;-71
2022/08/22 09:13:12;;;;;;;;;;;25.70;99.90;;;;;;5097882;28;19908;-70
2022/08/22 09:15:58;;;;;;;;;;;25.80;99.90;;;;;;5096633;28;19920;-71
2022/08/22 09:18:38;;;;;;;;;;;25.80;99.90;;;;;;5076886;28;19966;-70
2022/08/22 09:21:04;;;;;;;;;;;25.80;99.90;;;;;;5100198;28;19916;-70
2022/08/22 09:23:48;;;;;;;;;;;25.90;99.90;;;;;;5089628;28;20349;-71
2022/08/22 09:26:21;;;;;;;;;;;25.90;99.90;;;;;;5091156;28;19919;-68
2022/08/22 09:28:52;;;;;;;;;;;25.90;99.90;;;;;;5090072;28;19926;-70
2022/08/22 09:31:20;;;;;;;;;;;26.00;99.90;;;;;;5089874;28;19970;-71
2022/08/22 09:34:04;;;;;;;;;;;26.10;99.90;;;;;;5091523;28;19919;-69
2022/08/22 09:36:43;;;;;;;;;;;26.20;99.90;;;;;;5102838;28;20356;-70
2022/08/22 09:39:30;;;;;;;;;;;26.30;99.90;;;;;;5082685;28;20002;-71
2022/08/22 09:42:19;;;;;;;;;;;26.30;99.90;;;;;;5092138;28;20032;-70
2022/08/22 09:44:48;;;;;;;;;;;26.30;99.90;;;;;;5101387;28;19954;-71
2022/08/22 09:47:30;;;;;;;;;;;26.30;99.90;;;;;;5098863;28;19912;-70
2022/08/22 09:50:05;;;;;;;;;;;26.40;99.90;;;;;;5104973;28;20297;-70
2022/08/22 09:52:47;;;;;;;;;;;26.50;99.90;;;;;;5113872;28;19911;-70
2022/08/22 09:55:30;;;;;;;;;;;26.50;99.90;;;;;;5105868;28;19909;-70
2022/08/22 09:58:14;;;;;;;;;;;26.50;99.90;;;;;;5092652;28;19912;-70
2022/08/22 10:00:53;;;;;;;;;;;26.50;99.90;;;;;;5109139;28;20337;-71
2022/08/22 10:03:38;;;;;;;;;;;26.60;99.90;;;;;;5113470;28;19908;-71
2022/08/22 10:06:07;;;;;;;;;;;26.60;99.90;;;;;;5113103;28;20296;-71
2022/08/22 10:08:38;;;;;;;;;;;26.70;99.90;;;;;;5102209;28;20262;-70
2022/08/22 10:11:19;;;;;;;;;;;26.60;99.90;;;;;;5108685;28;20014;-71
2022/08/22 10:13:50;;;;;;;;;;;26.30;99.90;;;;;;5098107;28;19916;-70
2022/08/22 10:16:16;;;;;;;;;;;26.10;99.90;;;;;;5092695;28;19951;-71
2022/08/22 10:18:48;;;;;;;;;;;26.00;99.90;;;;;;5073847;28;19958;-70
2022/08/22 10:21:18;;;;;;;;;;;26.00;99.90;;;;;;5076226;28;19912;-71
2022/08/22 10:23:50;;;;;;;;;;;26.00;99.90;;;;;;5098389;28;20038;-71
2022/08/22 10:26:48;;;;;;;;;;;25.90;99.90;;;;;;5091373;28;19912;-70
2022/08/22 10:29:13;;;;;;;;;;;25.90;99.90;;;;;;5035173;28;20362;-71
2022/08/22 10:31:59;;;;;;;;;;;25.80;99.90;;;;;;5097531;28;19915;-70
2022/08/22 10:34:35;;;;;;;;;;;25.90;99.90;;;;;;5087256;28;20439;-72
2022/08/22 10:37:21;;;;;;;;;;;25.90;99.90;;;;;;5092276;28;19961;-71
2022/08/22 10:39:51;;;;;;;;;;;26.00;99.90;;;;;;5104766;28;20368;-72
2022/08/22 10:42:18;;;;;;;;;;;26.30;99.90;;;;;;5102880;28;19919;-72
2022/08/22 10:44:54;;;;;;;;;;;26.40;99.90;;;;;;5112631;28;20260;-72
2022/08/22 10:47:25;;;;;;;;;;;26.70;99.90;;;;;;5103556;28;19908;-73
2022/08/22 10:49:52;;;;;;;;;;;27.00;99.90;;;;;;5099417;28;20423;-70
2022/08/22 10:52:23;;;;;;;;;;;27.30;99.90;;;;;;5097137;28;19908;-74
2022/08/22 10:55:00;;;;;;;;;;;27.50;99.90;;;;;;5092201;28;19912;-72
2022/08/22 10:57:35;;;;;;;;;;;27.50;99.90;;;;;;5093623;28;19915;-70
2022/08/22 11:00:11;;;;;;;;;;;27.50;99.90;;;;;;5110118;28;19915;-70
2022/08/22 11:02:37;;;;;;;;;;;27.50;99.90;;;;;;5096934;28;20319;-73
2022/08/22 11:05:25;;;;;;;;;;;27.50;99.90;;;;;;5086741;28;19920;-71
2022/08/22 11:07:58;;;;;;;;;;;27.40;99.90;;;;;;5088710;28;20359;-72
2022/08/22 11:10:50;;;;;;;;;;;27.60;99.90;;;;;;5096672;28;19916;-72
2022/08/22 11:13:25;;;;;;;;;;;27.50;99.90;;;;;;5060357;28;19916;-71
2022/08/22 11:15:58;;;;;;;;;;;27.40;99.90;;;;;;5093575;28;20164;-73
2022/08/22 11:18:32;;;;;;;;;;;27.30;99.90;;;;;;5094156;28;19919;-72
2022/08/22 11:21:00;;;;;;;;;;;27.30;99.90;;;;;;5091254;28;20357;-74
2022/08/22 11:23:26;;;;;;;;;;;27.20;99.90;;;;;;5098933;28;19924;-72
2022/08/22 11:26:08;;;;;;;;;;;27.20;99.90;;;;;;5096971;28;19946;-73
2022/08/22 11:28:46;;;;;;;;;;;27.20;99.90;;;;;;5094306;28;19912;-71
2022/08/22 11:31:32;;;;;;;;;;;27.10;99.90;;;;;;5091584;28;20007;-72
2022/08/22 11:34:07;;;;;;;;;;;27.20;99.90;;;;;;5111080;28;20353;-70
2022/08/22 11:36:40;;;;;;;;;;;27.30;99.90;;;;;;5105561;28;19912;-71
2022/08/22 11:39:20;;;;;;;;;;;27.60;99.90;;;;;;5086727;28;19918;-73
2022/08/22 11:42:04;;;;;;;;;;;27.60;99.90;;;;;;5098478;28;19985;-72
2022/08/22 11:44:32;;;;;;;;;;;27.60;99.90;;;;;;5088953;28;19916;-73
2022/08/22 11:47:00;;;;;;;;;;;27.70;99.90;;;;;;5091895;28;20007;-71
2022/08/22 11:49:58;;;;;;;;;;;27.80;99.90;;;;;;5090936;28;19912;-72
2022/08/22 11:52:26;;;;;;;;;;;28.00;99.90;;;;;;5026886;28;20388;-71
2022/08/22 11:54:52;;;;;;;;;;;28.30;99.90;;;;;;5096665;28;19911;-71
2022/08/22 11:57:36;;;;;;;;;;;28.50;99.90;;;;;;5113566;27;19908;-71
2022/08/22 12:00:05;;;;;;;;;;;28.50;99.90;;;;;;5091664;28;20438;-72
2022/08/22 12:02:45;;;;;;;;;;;28.60;99.90;;;;;;5093502;28;20014;-72
2022/08/22 12:05:37;;;;;;;;;;;28.90;99.90;;;;;;5088145;28;19924;-71
2022/08/22 12:08:08;;;;;;;;;;;29.20;99.90;;;;;;5065482;28;19912;-71
2022/08/22 12:10:35;;;;;;;;;;;29.30;99.90;;;;;;5091228;28;20561;-72
2022/08/22 12:13:15;;;;;;;;;;;29.10;99.90;;;;;;5093675;28;19912;-71
2022/08/22 12:15:50;;;;;;;;;;;28.70;99.90;;;;;;5091764;28;19908;-70
2022/08/22 12:18:25;;;;;;;;;;;28.50;99.90;;;;;;5070514;28;19908;-72
2022/08/22 12:21:02;;;;;;;;;;;28.40;99.90;;;;;;5082983;28;19920;-70
2022/08/22 12:23:35;;;;;;;;;;;28.20;99.90;;;;;;5110704;28;19915;-72
2022/08/22 12:26:02;;;;;;;;;;;28.10;99.90;;;;;;5089963;28;19916;-70
2022/08/22 12:28:37;;;;;;;;;;;28.20;99.90;;;;;;5086658;28;20317;-71
2022/08/22 12:31:03;;;;;;;;;;;28.30;99.90;;;;;;5090339;28;20254;-72
2022/08/22 12:33:47;;;;;;;;;;;28.60;99.90;;;;;;5093830;28;19916;-70
2022/08/22 12:36:18;;;;;;;;;;;28.60;99.90;;;;;;5087772;28;20353;-71
2022/08/22 12:38:52;;;;;;;;;;;28.40;99.90;;;;;;5095387;28;19951;-71
2022/08/22 12:41:18;;;;;;;;;;;28.30;99.90;;;;;;5110971;28;19908;-73
2022/08/22 12:44:13;;;;;;;;;;;28.20;99.90;;;;;;5093194;28;19912;-74
2022/08/22 12:46:58;;;;;;;;;;;28.30;99.90;;;;;;5037760;28;19999;-69
2022/08/22 12:49:28;;;;;;;;;;;28.20;99.90;;;;;;5047231;28;19958;-68
2022/08/22 12:52:08;;;;;;;;;;;28.20;99.90;;;;;;5071626;28;19915;-69
2022/08/22 12:54:37;;;;;;;;;;;28.20;99.90;;;;;;5111026;28;19908;-72
2022/08/22 12:57:22;;;;;;;;;;;28.10;99.90;;;;;;5093458;28;19909;-69
2022/08/22 12:59:49;;;;;;;;;;;28.20;99.90;;;;;;5072519;28;19944;-69
2022/08/22 13:02:17;;;;;;;;;;;28.10;99.90;;;;;;5091663;28;19916;-68
2022/08/22 13:04:48;;;;;;;;;;;28.10;99.90;;;;;;5093782;28;19912;-68
2022/08/22 13:07:14;;;;;;;;;;;28.00;99.90;;;;;;5078957;28;20350;-66
2022/08/22 13:09:45;;;;;;;;;;;27.90;99.90;;;;;;5080118;28;19920;-69
2022/08/22 13:12:26;;;;;;;;;;;27.60;99.90;;;;;;5082060;28;20024;-69
2022/08/22 13:14:54;;;;;;;;;;;27.60;99.90;;;;;;5083045;28;19959;-69
2022/08/22 13:17:21;;;;;;;;;;;27.60;99.90;;;;;;5083591;28;20302;-69
2022/08/22 13:19:55;;;;;;;;;;;27.70;99.90;;;;;;5080421;28;19987;-68
2022/08/22 13:22:26;;;;;;;;;;;27.80;99.90;;;;;;5085350;28;19919;-68
2022/08/22 13:25:15;;;;;;;;;;;27.70;99.90;;;;;;5087420;28;19932;-67
2022/08/22 13:27:42;;;;;;;;;;;27.60;99.90;;;;;;5065607;28;19916;-69
2022/08/22 13:30:15;;;;;;;;;;;27.40;99.90;;;;;;5078882;28;19913;-68
2022/08/22 13:32:45;;;;;;;;;;;27.40;99.90;;;;;;5097137;28;19919;-67
2022/08/22 13:35:38;;;;;;;;;;;27.30;99.90;;;;;;5080776;28;19973;-69
2022/08/22 13:38:09;;;;;;;;;;;27.30;99.90;;;;;;5054225;28;19920;-68
2022/08/22 13:40:35;;;;;;;;;;;27.30;99.90;;;;;;5079562;28;19916;-67
2022/08/22 13:43:09;;;;;;;;;;;27.40;99.90;;;;;;5084636;28;20281;-67
2022/08/22 13:45:35;;;;;;;;;;;27.30;99.90;;;;;;5084908;28;20000;-66
2022/08/22 13:48:06;;;;;;;;;;;27.50;99.90;;;;;;5099863;28;20338;-68
2022/08/22 13:50:35;;;;;;;;;;;27.50;99.90;;;;;;5091150;28;19912;-68
2022/08/22 13:53:05;;;;;;;;;;;27.40;99.90;;;;;;5098127;28;19908;-68
2022/08/22 13:55:43;;;;;;;;;;;27.50;99.90;;;;;;5090286;28;19920;-66
2022/08/22 13:58:09;;;;;;;;;;;27.40;99.90;;;;;;5089839;28;20464;-66
2022/08/22 14:00:40;;;;;;;;;;;27.30;99.90;;;;;;5091887;28;19912;-68
2022/08/22 14:03:09;;;;;;;;;;;27.30;99.90;;;;;;5097114;28;19912;-66
2022/08/22 14:05:38;;;;;;;;;;;27.10;99.90;;;;;;5112765;28;20068;-68
2022/08/22 14:08:03;;;;;;;;;;;27.20;99.90;;;;;;5113661;28;19908;-65
2022/08/22 14:10:31;;;;;;;;;;;27.10;99.90;;;;;;5102528;28;19981;-66
2022/08/22 14:12:57;;;;;;;;;;;27.20;99.90;;;;;;5092996;28;20274;-65
2022/08/22 14:15:28;;;;;;;;;;;27.30;99.90;;;;;;5092739;28;19912;-66
2022/08/22 14:17:57;;;;;;;;;;;27.30;99.90;;;;;;5095775;28;20381;-66
2022/08/22 14:20:25;;;;;;;;;;;27.30;99.90;;;;;;5091976;28;20009;-66
2022/08/22 14:22:54;;;;;;;;;;;27.50;99.90;;;;;;5099314;28;19915;-68
2022/08/22 14:25:24;;;;;;;;;;;27.90;99.90;;;;;;5075163;28;20365;-67
2022/08/22 14:27:56;;;;;;;;;;;28.50;99.90;;;;;;5092441;28;19908;-67
2022/08/22 14:30:28;;;;;;;;;;;28.80;99.90;;;;;;5107344;28;19919;-65
2022/08/22 14:33:12;;;;;;;;;;;28.90;99.90;;;;;;5105931;28;19912;-66
2022/08/22 14:35:43;;;;;;;;;;;29.20;99.90;;;;;;5095314;28;19912;-66
2022/08/22 14:38:20;;;;;;;;;;;29.50;99.90;;;;;;5110207;28;20015;-65
2022/08/22 14:40:50;;;;;;;;;;;29.40;99.90;;;;;;5103612;28;19915;-64
2022/08/22 14:43:19;;;;;;;;;;;29.30;99.90;;;;;;5100883;28;19908;-67
2022/08/22 14:45:52;;;;;;;;;;;29.20;99.90;;;;;;5092450;28;20043;-67
2022/08/22 14:48:23;;;;;;;;;;;29.10;99.90;;;;;;5087116;28;19919;-65
2022/08/22 14:51:00;;;;;;;;;;;28.90;99.90;;;;;;5090501;28;19957;-66
2022/08/22 14:53:30;;;;;;;;;;;29.00;99.90;;;;;;5101325;28;19999;-67
2022/08/22 14:56:01;;;;;;;;;;;29.00;99.90;;;;;;5092120;28;20303;-66
2022/08/22 14:58:28;;;;;;;;;;;29.20;99.90;;;;;;5099655;28;19913;-66